Time;durP1;ratioP1;P1;durP2;ratioP2;P2;SDS_P1;SDS_P2;PMS_P1;PMS_P2;Temp;Humidity;BMP_temperature;BMP_pressure;BME280_temperature;BME280_humidity;BME280_pressure;Samples;Min_cycle;Max_cycle;Signal;HPM_P1;HPM_P2
2022/12/06 00:01:56;;;;;;;13.93;9.63;;;;;4.90;101513.00;;;;9756249;30;20304;-81
2022/12/06 00:06:59;;;;;;;15.17;9.37;;;;;4.90;101513.00;;;;9783270;30;20236;-79
2022/12/06 00:12:01;;;;;;;16.73;8.50;;;;;4.90;101503.00;;;;9786124;30;20202;-80
2022/12/06 00:17:03;;;;;;;17.23;8.90;;;;;4.90;101505.00;;;;9765234;30;20222;-78
2022/12/06 00:22:04;;;;;;;16.77;9.00;;;;;4.90;101513.00;;;;9769325;30;20233;-78
2022/12/06 00:27:07;;;;;;;16.20;8.67;;;;;4.90;101507.00;;;;9735567;30;20246;-77
2022/12/06 00:32:10;;;;;;;14.57;8.60;;;;;4.90;101495.00;;;;9776125;30;20301;-81
2022/12/06 00:37:19;;;;;;;12.90;8.07;;;;;4.90;101498.00;;;;9750118;30;20662;-79
2022/12/06 00:42:21;;;;;;;14.50;7.97;;;;;4.80;101502.00;;;;9738821;30;20608;-78
2022/12/06 00:47:23;;;;;;;13.43;8.27;;;;;4.80;101508.00;;;;9749258;30;20207;-80
2022/12/06 00:52:25;;;;;;;16.23;8.40;;;;;4.80;101512.00;;;;9735221;30;20320;-77
2022/12/06 00:57:27;;;;;;;15.50;8.70;;;;;4.80;101502.00;;;;9734952;30;20858;-78
2022/12/06 01:02:29;;;;;;;12.97;7.70;;;;;4.80;101505.00;;;;9763886;30;20213;-78
2022/12/06 01:07:31;;;;;;;15.80;7.93;;;;;4.80;101498.00;;;;9746443;30;20287;-77
2022/12/06 01:12:33;;;;;;;14.17;7.87;;;;;4.80;101494.00;;;;9732280;30;20222;-78
2022/12/06 01:17:35;;;;;;;12.33;7.47;;;;;4.80;101497.00;;;;9741463;30;20556;-78
2022/12/06 01:22:37;;;;;;;14.50;7.20;;;;;4.80;101496.00;;;;9746823;30;20214;-78
2022/12/06 01:27:39;;;;;;;14.67;7.97;;;;;4.80;101490.00;;;;9730431;30;20234;-77
2022/12/06 01:32:42;;;;;;;12.80;7.10;;;;;4.80;101493.00;;;;9739887;30;20209;-79
2022/12/06 01:37:43;;;;;;;11.60;7.67;;;;;4.80;101490.00;;;;9740461;30;20214;-78
2022/12/06 01:42:45;;;;;;;12.27;7.33;;;;;4.80;101495.00;;;;9755640;30;20214;-77
2022/12/06 01:47:47;;;;;;;17.90;8.10;;;;;4.80;101491.00;;;;9770023;30;20256;-77
2022/12/06 01:52:58;;;;;;;15.70;7.63;;;;;4.80;101498.00;;;;9753916;30;20237;-80
2022/12/06 01:58:06;;;;;;;13.87;7.87;;;;;4.70;101492.00;;;;9768665;30;20210;-78
2022/12/06 02:03:13;;;;;;;14.20;7.93;;;;;4.80;101482.00;;;;9753931;30;20202;-77
2022/12/06 02:08:15;;;;;;;11.67;7.00;;;;;4.80;101484.00;;;;9717819;30;20318;-77
2022/12/06 02:13:17;;;;;;;12.50;7.47;;;;;4.80;101484.00;;;;9732735;30;20206;-77
2022/12/06 02:18:31;;;;;;;11.40;7.00;;;;;4.70;101487.00;;;;9777528;30;20709;-78
2022/12/06 02:23:57;;;;;;;12.90;8.33;;;;;4.70;101481.00;;;;9769181;30;20206;-80
2022/12/06 02:29:08;;;;;;;9.63;6.20;;;;;4.70;101476.00;;;;9768287;30;20237;-77
2022/12/06 02:34:33;;;;;;;11.57;7.70;;;;;4.70;101481.00;;;;9761590;30;20609;-79
2022/12/06 02:39:38;;;;;;;12.03;6.43;;;;;4.80;101477.00;;;;9761127;30;20218;-79
2022/12/06 02:44:48;;;;;;;12.60;7.27;;;;;4.80;101476.00;;;;9748334;30;20206;-79
2022/12/06 02:49:53;;;;;;;13.33;7.67;;;;;4.80;101478.00;;;;9755578;30;20216;-77
2022/12/06 02:54:58;;;;;;;13.10;6.67;;;;;4.80;101480.00;;;;9769736;30;20226;-80
2022/12/06 03:00:00;;;;;;;11.70;6.97;;;;;4.80;101484.00;;;;9729363;30;20233;-78
2022/12/06 03:05:34;;;;;;;16.17;7.83;;;;;4.80;101484.00;;;;9747437;30;20566;-78
2022/12/06 03:10:49;;;;;;;12.90;7.30;;;;;4.80;101486.00;;;;9738821;30;20214;-78
2022/12/06 03:16:07;;;;;;;12.53;6.87;;;;;4.90;101487.00;;;;9754379;30;20214;-77
2022/12/06 03:21:18;;;;;;;13.90;7.07;;;;;4.90;101488.00;;;;9789105;30;20280;-76
2022/12/06 03:26:25;;;;;;;12.63;6.43;;;;;4.90;101491.00;;;;9774040;30;20197;-77
2022/12/06 03:31:30;;;;;;;16.00;7.70;;;;;4.90;101490.00;;;;9751066;30;20206;-76
2022/12/06 03:36:32;;;;;;;15.70;7.47;;;;;4.90;101495.00;;;;9803141;30;20238;-79
2022/12/06 03:41:52;;;;;;;13.17;7.77;;;;;4.90;101487.00;;;;9787891;30;20213;-78
2022/12/06 03:47:05;;;;;;;16.17;8.10;;;;;4.90;101495.00;;;;9740898;30;20213;-79
2022/12/06 03:52:08;;;;;;;13.37;7.67;;;;;4.90;101487.00;;;;9756548;30;20269;-78
2022/12/06 03:57:10;;;;;;;14.43;7.57;;;;;4.90;101492.00;;;;9736963;30;20797;-77
2022/12/06 04:02:12;;;;;;;17.73;7.93;;;;;4.90;101491.00;;;;9770323;30;20607;-78
2022/12/06 04:07:14;;;;;;;17.00;8.00;;;;;4.90;101490.00;;;;9763857;30;20890;-78
2022/12/06 04:23:05;;;;;;;16.33;7.73;;;;;4.90;101484.00;;;;9777485;30;20206;-78
2022/12/06 04:38:48;;;;;;;14.73;7.37;;;;;4.90;101484.00;;;;9754402;30;20210;-78
2022/12/06 04:43:50;;;;;;;14.20;7.20;;;;;4.90;101485.00;;;;9759629;30;20268;-77
2022/12/06 04:48:51;;;;;;;13.40;7.40;;;;;4.90;101489.00;;;;9764538;30;20696;-76
2022/12/06 04:53:53;;;;;;;14.10;7.07;;;;;4.90;101476.00;;;;9769617;30;20241;-80
2022/12/06 04:58:56;;;;;;;12.27;7.37;;;;;4.90;101474.00;;;;9771868;30;20214;-80
2022/12/06 05:03:58;;;;;;;17.57;8.23;;;;;4.90;101461.00;;;;9774554;30;20218;-80
2022/12/06 05:09:00;;;;;;;14.63;7.40;;;;;4.80;101452.00;;;;9760808;30;20210;-80
2022/12/06 05:14:02;;;;;;;18.57;7.57;;;;;4.80;101450.00;;;;9761710;30;20201;-79
2022/12/06 05:19:04;;;;;;;13.03;7.47;;;;;4.80;101458.00;;;;9771733;30;20571;-79
2022/12/06 05:24:07;;;;;;;13.97;7.17;;;;;4.80;101466.00;;;;9758954;30;20284;-79
2022/12/06 05:29:09;;;;;;;15.10;7.70;;;;;4.80;101459.00;;;;9761277;30;20230;-79
2022/12/06 05:34:11;;;;;;;18.37;8.60;;;;;4.80;101464.00;;;;9788228;30;20275;-80
2022/12/06 05:39:12;;;;;;;15.03;7.50;;;;;4.80;101465.00;;;;9775025;30;20218;-79
2022/12/06 05:44:14;;;;;;;18.03;7.70;;;;;4.80;101457.00;;;;9773822;30;20202;-79
2022/12/06 05:49:16;;;;;;;14.53;7.63;;;;;4.80;101461.00;;;;9803945;30;20744;-80
2022/12/06 05:54:19;;;;;;;13.73;8.03;;;;;4.70;101455.00;;;;9760972;30;20220;-79
2022/12/06 05:59:21;;;;;;;16.50;8.07;;;;;4.70;101464.00;;;;9752596;30;20234;-79
2022/12/06 06:04:23;;;;;;;16.33;8.57;;;;;4.70;101464.00;;;;9755807;30;20666;-79
2022/12/06 06:09:28;;;;;;;20.80;7.67;;;;;4.60;101462.00;;;;9761212;30;20198;-79
2022/12/06 06:14:29;;;;;;;14.07;7.47;;;;;4.60;101458.00;;;;9742814;30;20240;-80
2022/12/06 06:19:31;;;;;;;19.27;7.37;;;;;4.60;101466.00;;;;9734624;30;20252;-79
2022/12/06 06:24:35;;;;;;;15.43;8.20;;;;;4.60;101468.00;;;;9711852;30;20562;-80
2022/12/06 06:29:37;;;;;;;14.83;7.37;;;;;4.40;101467.00;;;;9761692;30;20243;-80
2022/12/06 06:34:45;;;;;;;18.00;7.63;;;;;4.30;101469.00;;;;9758168;30;20198;-79
2022/12/06 06:39:47;;;;;;;14.93;6.93;;;;;4.20;101461.00;;;;9751208;30;20281;-80
2022/12/06 06:44:50;;;;;;;12.97;7.17;;;;;4.20;101462.00;;;;9755197;30;20242;-79
2022/12/06 06:49:52;;;;;;;15.90;6.77;;;;;4.20;101472.00;;;;9756585;30;20190;-79
2022/12/06 06:54:54;;;;;;;18.03;7.00;;;;;4.10;101464.00;;;;9792002;30;20208;-79
2022/12/06 06:59:56;;;;;;;15.93;7.93;;;;;3.90;101466.00;;;;9730206;30;20281;-79
2022/12/06 07:04:58;;;;;;;14.63;7.97;;;;;3.80;101475.00;;;;9781358;30;20213;-79
2022/12/06 07:10:00;;;;;;;15.97;7.77;;;;;3.70;101480.00;;;;9766827;30;20206;-79
2022/12/06 07:15:03;;;;;;;13.30;7.00;;;;;3.60;101467.00;;;;9779747;30;20733;-79
2022/12/06 07:20:06;;;;;;;17.40;8.07;;;;;3.60;101471.00;;;;9780732;30;20209;-79
2022/12/06 07:25:08;;;;;;;14.27;6.67;;;;;3.60;101471.00;;;;9730065;30;20206;-79
2022/12/06 07:30:10;;;;;;;15.53;7.50;;;;;3.60;101475.00;;;;9729955;30;20238;-79
2022/12/06 07:35:18;;;;;;;17.37;7.30;;;;;3.70;101472.00;;;;9750876;30;20214;-79
2022/12/06 07:40:20;;;;;;;14.73;6.87;;;;;3.80;101474.00;;;;9765045;30;20786;-79
2022/12/06 07:45:42;;;;;;;13.63;6.73;;;;;3.80;101483.00;;;;9782502;30;20304;-79
2022/12/06 07:50:43;;;;;;;12.67;6.73;;;;;3.80;101479.00;;;;9761953;30;20213;-79
2022/12/06 07:55:45;;;;;;;15.80;7.30;;;;;3.70;101484.00;;;;9755589;30;20581;-78
2022/12/06 08:00:47;;;;;;;14.63;7.37;;;;;3.60;101480.00;;;;9771778;30;20265;-79
2022/12/06 08:05:54;;;;;;;14.00;7.60;;;;;3.50;101480.00;;;;9779288;30;20818;-79
2022/12/06 08:11:05;;;;;;;11.93;7.10;;;;;3.40;101477.00;;;;9794234;30;20198;-79
2022/12/06 08:16:13;;;;;;;14.90;7.77;;;;;3.50;101487.00;;;;9757510;30;20205;-79
2022/12/06 08:21:16;;;;;;;15.93;9.07;;;;;3.60;101496.00;;;;9805452;30;20864;-79
2022/12/06 08:26:18;;;;;;;18.73;8.83;;;;;3.80;101511.00;;;;9746357;30;20197;-79
2022/12/06 08:31:22;;;;;;;18.60;7.83;;;;;3.90;101507.00;;;;9772840;30;20269;-79
2022/12/06 08:36:25;;;;;;;14.67;7.83;;;;;3.90;101521.00;;;;9779639;30;20205;-79
2022/12/06 08:46:48;;;;;;;18.77;8.70;;;;;4.20;101536.00;;;;9769699;30;20209;-79
2022/12/06 08:51:51;;;;;;;18.37;8.23;;;;;4.40;101535.00;;;;9757698;30;20197;-79
2022/12/06 08:56:53;;;;;;;13.57;7.20;;;;;4.60;101531.00;;;;9775446;30;20289;-78
2022/12/06 09:01:55;;;;;;;12.93;8.23;;;;;4.70;101527.00;;;;9762791;30;20228;-79
2022/12/06 09:06:57;;;;;;;17.93;7.87;;;;;4.90;101536.00;;;;9757103;30;20198;-79
2022/12/06 09:11:59;;;;;;;19.77;9.37;;;;;5.00;101533.00;;;;9753635;30;20207;-79
2022/12/06 09:17:01;;;;;;;17.20;8.37;;;;;5.30;101542.00;;;;9736096;30;20198;-79
2022/12/06 09:22:03;;;;;;;16.87;9.43;;;;;5.40;101537.00;;;;9739014;30;20222;-79
2022/12/06 09:27:05;;;;;;;23.17;10.13;;;;;5.50;101535.00;;;;9790156;30;20252;-79
2022/12/06 09:32:07;;;;;;;22.37;9.10;;;;;5.70;101539.00;;;;9776581;30;20190;-79
2022/12/06 09:37:11;;;;;;;19.93;9.00;;;;;5.70;101541.00;;;;9761007;30;20202;-79
2022/12/06 09:42:37;;;;;;;13.80;8.40;;;;;5.70;101536.00;;;;9775072;30;20217;-79
2022/12/06 09:47:46;;;;;;;23.23;10.03;;;;;6.10;101535.00;;;;9768280;30;20253;-79
2022/12/06 09:53:01;;;;;;;1579.43;268.67;;;;;6.60;101526.00;;;;9745780;30;20244;-80
2022/12/06 09:58:26;;;;;;;53.63;16.70;;;;;6.90;101523.00;;;;9758511;30;20245;-79
2022/12/06 10:03:55;;;;;;;35.50;12.90;;;;;7.10;101520.00;;;;9774149;30;20249;-79
2022/12/06 10:09:35;;;;;;;26.40;10.53;;;;;7.30;101520.00;;;;9754526;30;20209;-80
2022/12/06 10:14:58;;;;;;;21.97;11.10;;;;;7.40;101517.00;;;;9739792;30;20209;-79
2022/12/06 10:20:47;;;;;;;27.07;10.00;;;;;7.60;101507.00;;;;9771243;30;20556;-79
2022/12/06 10:26:11;;;;;;;19.57;9.77;;;;;7.80;101503.00;;;;9683437;30;20277;-78
2022/12/06 10:31:30;;;;;;;16.87;9.63;;;;;7.90;101505.00;;;;9764186;30;20253;-77
2022/12/06 10:36:47;;;;;;;17.53;9.00;;;;;8.00;101510.00;;;;9779962;30;20201;-77
2022/12/06 10:42:03;;;;;;;17.03;8.53;;;;;8.20;101511.00;;;;9740446;30;20217;-76
2022/12/06 10:47:26;;;;;;;12.53;7.63;;;;;8.30;101508.00;;;;9767297;30;20206;-76
2022/12/06 10:52:46;;;;;;;12.37;7.27;;;;;8.30;101507.00;;;;9753194;30;20257;-79
2022/12/06 10:58:19;;;;;;;11.03;6.30;;;;;8.30;101510.00;;;;9771488;30;20252;-80
2022/12/06 11:03:36;;;;;;;8.37;5.80;;;;;8.30;101506.00;;;;9779092;30;20237;-78
2022/12/06 11:08:45;;;;;;;8.93;5.80;;;;;8.40;101505.00;;;;9767099;30;20213;-78
2022/12/06 11:13:55;;;;;;;10.93;5.20;;;;;8.30;101511.00;;;;9754086;30;20202;-78
2022/12/06 11:19:16;;;;;;;8.63;5.37;;;;;8.30;101508.00;;;;9736730;30;20273;-77
2022/12/06 11:24:25;;;;;;;8.37;5.53;;;;;8.50;101504.00;;;;9759143;30;20221;-77
2022/12/06 11:29:27;;;;;;;7.47;5.47;;;;;8.60;101505.00;;;;9754966;30;20237;-76
2022/12/06 11:34:42;;;;;;;8.67;5.57;;;;;8.60;101506.00;;;;9791799;30;20205;-77
2022/12/06 11:39:44;;;;;;;9.43;4.53;;;;;8.60;101505.00;;;;9757399;30;20680;-80
2022/12/06 11:44:56;;;;;;;7.10;4.50;;;;;8.70;101503.00;;;;9773146;30;20210;-77
2022/12/06 11:49:58;;;;;;;9.70;4.33;;;;;9.10;101516.00;;;;9767389;30;20666;-78
2022/12/06 11:55:21;;;;;;;8.83;5.10;;;;;9.60;101503.00;;;;9740162;30;20212;-79
2022/12/06 12:00:24;;;;;;;7.43;4.23;;;;;9.40;101507.00;;;;9751553;30;20225;-79
2022/12/06 12:05:30;;;;;;;6.87;4.47;;;;;9.20;101499.00;;;;9776204;30;20206;-79
2022/12/06 12:10:34;;;;;;;7.10;4.60;;;;;9.10;101490.00;;;;9756934;30;20233;-78
2022/12/06 12:15:37;;;;;;;9.80;4.13;;;;;9.30;101501.00;;;;9770425;30;20215;-79
2022/12/06 12:20:45;;;;;;;6.83;4.33;;;;;9.60;101491.00;;;;9752660;30;20221;-79
2022/12/06 12:26:17;;;;;;;8.87;5.70;;;;;9.10;101486.00;;;;9751828;30;20220;-79
2022/12/06 12:31:22;;;;;;;8.47;4.80;;;;;9.40;101480.00;;;;9750223;30;20281;-79
2022/12/06 12:36:28;;;;;;;8.87;4.23;;;;;9.90;101480.00;;;;9765030;30;20199;-77
2022/12/06 12:41:43;;;;;;;6.90;4.30;;;;;10.30;101470.00;;;;9753875;30;20240;-79
2022/12/06 12:46:51;;;;;;;8.40;4.00;;;;;9.80;101477.00;;;;9730137;30;20202;-76
2022/12/06 12:51:53;;;;;;;6.53;4.33;;;;;9.70;101467.00;;;;9765561;30;20191;-79
2022/12/06 12:56:57;;;;;;;5.43;3.43;;;;;9.60;101466.00;;;;9729539;30;20280;-78
2022/12/06 13:02:21;;;;;;;4.53;2.43;;;;;9.30;101470.00;;;;9761909;30;20217;-77
2022/12/06 13:07:32;;;;;;;3.30;2.40;;;;;9.00;101459.00;;;;9768345;30;20205;-79
2022/12/06 13:12:39;;;;;;;3.47;2.27;;;;;8.90;101474.00;;;;9750167;30;20206;-79
2022/12/06 13:17:44;;;;;;;7.70;3.57;;;;;8.80;101465.00;;;;9757953;30;20213;-79
2022/12/06 13:22:50;;;;;;;4.90;3.57;;;;;8.60;101465.00;;;;9755798;30;20209;-76
2022/12/06 13:27:55;;;;;;;8.00;3.13;;;;;8.60;101458.00;;;;9756078;30;20238;-78
2022/12/06 13:33:24;;;;;;;5.17;2.87;;;;;8.30;101451.00;;;;9751414;30;20583;-79
2022/12/06 13:38:32;;;;;;;4.43;2.70;;;;;8.00;101447.00;;;;9735905;30;20243;-78
2022/12/06 13:43:34;;;;;;;4.50;3.30;;;;;7.90;101440.00;;;;9742328;30;20286;-78
2022/12/06 13:48:48;;;;;;;5.20;4.00;;;;;7.70;101447.00;;;;9749630;30;20260;-77
2022/12/06 13:54:03;;;;;;;4.47;3.23;;;;;7.60;101448.00;;;;9783022;30;20535;-79
2022/12/06 13:59:11;;;;;;;6.17;3.67;;;;;7.50;101443.00;;;;9744770;30;20237;-79
2022/12/06 14:04:28;;;;;;;4.93;3.70;;;;;7.40;101439.00;;;;9728621;30;20683;-79
2022/12/06 14:09:34;;;;;;;6.87;3.53;;;;;7.50;101441.00;;;;9730238;30;20676;-79
2022/12/06 14:14:36;;;;;;;5.00;3.53;;;;;7.60;101442.00;;;;9739712;30;20206;-79
2022/12/06 14:19:45;;;;;;;4.93;3.03;;;;;7.60;101444.00;;;;9748229;30;20271;-79
2022/12/06 14:25:02;;;;;;;5.23;3.67;;;;;7.50;101434.00;;;;9746427;30;20421;-78
2022/12/06 14:30:12;;;;;;;8.47;4.10;;;;;7.30;101437.00;;;;9755812;30;20232;-79
2022/12/06 14:35:20;;;;;;;6.00;3.77;;;;;7.20;101440.00;;;;9778375;30;20637;-79
2022/12/06 14:46:10;;;;;;;7.03;3.17;;;;;7.00;101431.00;;;;9744156;30;21240;-79
2022/12/06 14:51:32;;;;;;;6.37;2.87;;;;;6.90;101428.00;;;;9769543;30;20206;-79
2022/12/06 14:56:35;;;;;;;6.30;3.17;;;;;6.90;101421.00;;;;9749716;30;20205;-79
2022/12/06 15:01:47;;;;;;;4.67;3.07;;;;;6.80;101423.00;;;;9750925;30;20263;-78
2022/12/06 15:06:55;;;;;;;8.70;3.43;;;;;6.70;101421.00;;;;9752985;30;20198;-79
2022/12/06 15:17:43;;;;;;;4.50;2.93;;;;;6.50;101425.00;;;;9758865;30;20213;-79
2022/12/06 15:22:45;;;;;;;5.27;3.47;;;;;6.50;101421.00;;;;9761921;30;20249;-79
2022/12/06 15:27:47;;;;;;;4.30;2.20;;;;;6.40;101422.00;;;;9750508;30;20230;-78
2022/12/06 15:32:49;;;;;;;4.13;2.73;;;;;6.40;101418.00;;;;9764757;30;20238;-79
2022/12/06 15:37:51;;;;;;;4.67;3.20;;;;;6.40;101421.00;;;;9771737;30;20206;-78
2022/12/06 15:42:53;;;;;;;6.43;2.60;;;;;6.30;101431.00;;;;9758305;30;20232;-79
2022/12/06 15:48:03;;;;;;;4.97;3.27;;;;;6.30;101426.00;;;;9752513;30;20211;-78
2022/12/06 15:53:05;;;;;;;4.13;2.83;;;;;6.20;101424.00;;;;9780509;30;20766;-79
2022/12/06 15:58:07;;;;;;;8.17;3.00;;;;;6.20;101436.00;;;;9741503;30;20675;-79
2022/12/06 16:03:09;;;;;;;8.97;3.83;;;;;6.20;101427.00;;;;9749086;30;20201;-79
2022/12/06 16:08:11;;;;;;;8.30;3.37;;;;;6.20;101425.00;;;;9725261;30;20226;-78
2022/12/06 16:13:22;;;;;;;7.33;3.23;;;;;6.10;101432.00;;;;9779176;30;20198;-78
2022/12/06 16:18:24;;;;;;;9.20;3.50;;;;;6.10;101427.00;;;;9747196;30;20202;-79
2022/12/06 16:29:23;;;;;;;6.43;3.17;;;;;6.00;101428.00;;;;9777607;30;20312;-79
2022/12/06 16:34:27;;;;;;;6.37;3.97;;;;;6.00;101425.00;;;;9769470;30;20212;-79
2022/12/06 16:39:32;;;;;;;8.67;4.27;;;;;6.00;101431.00;;;;9739487;30;20241;-79
2022/12/06 16:44:49;;;;;;;5.87;3.40;;;;;6.00;101424.00;;;;9749971;30;20320;-79
2022/12/06 16:49:51;;;;;;;7.90;3.90;;;;;6.00;101417.00;;;;9768369;30;20686;-79
2022/12/06 16:54:53;;;;;;;9.77;5.00;;;;;6.00;101407.00;;;;9774283;30;20210;-79
2022/12/06 16:59:55;;;;;;;9.60;3.90;;;;;6.00;101405.00;;;;9768027;30;20363;-79
2022/12/06 17:05:04;;;;;;;9.00;4.00;;;;;6.00;101402.00;;;;9771165;30;20232;-79
2022/12/06 17:10:07;;;;;;;12.60;4.87;;;;;6.00;101410.00;;;;9763239;30;20209;-78
2022/12/06 17:15:15;;;;;;;8.30;4.30;;;;;6.00;101410.00;;;;9739822;30;20363;-79
2022/12/06 17:20:17;;;;;;;7.10;4.00;;;;;5.90;101411.00;;;;9765597;30;20241;-78
2022/12/06 17:25:19;;;;;;;6.73;3.83;;;;;5.80;101417.00;;;;9801081;30;20753;-79
2022/12/06 17:30:22;;;;;;;9.30;4.33;;;;;5.60;101408.00;;;;9773420;30;20229;-78
2022/12/06 17:35:24;;;;;;;7.80;4.30;;;;;5.60;101420.00;;;;9773983;30;20342;-79
2022/12/06 17:40:26;;;;;;;7.00;4.67;;;;;5.60;101412.00;;;;9774475;30;20694;-79
2022/12/06 17:45:28;;;;;;;8.53;4.40;;;;;5.60;101421.00;;;;9774428;30;20304;-79
2022/12/06 17:50:30;;;;;;;11.67;5.30;;;;;5.60;101414.00;;;;9774226;30;20194;-79
2022/12/06 17:55:32;;;;;;;12.30;5.37;;;;;5.60;101418.00;;;;9773541;30;20194;-79
2022/12/06 18:00:34;;;;;;;7.67;4.70;;;;;5.60;101412.00;;;;9759401;30;20222;-79
2022/12/06 18:05:35;;;;;;;8.20;4.37;;;;;5.60;101418.00;;;;9772007;30;20275;-79
2022/12/06 18:10:37;;;;;;;12.43;5.00;;;;;5.60;101417.00;;;;9752469;30;20206;-79
2022/12/06 18:15:40;;;;;;;8.10;4.77;;;;;5.60;101417.00;;;;9741237;30;20579;-78
2022/12/06 18:20:43;;;;;;;8.97;5.40;;;;;5.60;101428.00;;;;9743507;30;20214;-79
2022/12/06 18:25:45;;;;;;;12.10;6.93;;;;;5.50;101424.00;;;;9770625;30;20235;-78
2022/12/06 18:30:46;;;;;;;10.67;5.83;;;;;5.60;101419.00;;;;9753396;30;20250;-79
2022/12/06 18:35:52;;;;;;;15.37;6.33;;;;;5.60;101427.00;;;;9780495;30;20198;-78
2022/12/06 18:41:06;;;;;;;11.33;6.77;;;;;5.60;101418.00;;;;9752264;30;20234;-79
2022/12/06 18:46:13;;;;;;;11.10;6.77;;;;;5.60;101426.00;;;;9758053;30;20242;-78
2022/12/06 18:51:19;;;;;;;11.50;7.23;;;;;5.60;101422.00;;;;9794953;30;20259;-78
2022/12/06 18:56:22;;;;;;;16.73;7.20;;;;;5.60;101406.00;;;;9765564;30;20251;-79
2022/12/06 19:01:30;;;;;;;12.30;6.97;;;;;5.60;101399.00;;;;9762316;30;20214;-79
2022/12/06 19:06:35;;;;;;;12.80;6.70;;;;;5.60;101410.00;;;;9779550;30;20208;-79
2022/12/06 19:11:40;;;;;;;10.77;6.47;;;;;5.60;101414.00;;;;9780804;30;20216;-79
2022/12/06 19:16:44;;;;;;;12.13;6.97;;;;;5.60;101408.00;;;;9768905;30;20749;-79
2022/12/06 19:21:48;;;;;;;7.37;5.73;;;;;5.50;101398.00;;;;9794807;30;20316;-79
2022/12/06 19:26:51;;;;;;;11.93;6.17;;;;;5.50;101401.00;;;;9780586;30;20224;-79
2022/12/06 19:31:54;;;;;;;10.03;6.37;;;;;5.50;101396.00;;;;9775203;30;20198;-79
2022/12/06 19:36:56;;;;;;;9.97;6.60;;;;;5.50;101398.00;;;;9779392;30;20305;-78
2022/12/06 19:47:19;;;;;;;7.90;5.60;;;;;5.30;101403.00;;;;9776836;30;20295;-79
2022/12/06 19:52:21;;;;;;;13.50;7.13;;;;;5.20;101395.00;;;;9779285;30;20676;-79
2022/12/06 19:57:30;;;;;;;11.87;7.13;;;;;5.00;101392.00;;;;9769633;30;20222;-79
2022/12/06 20:02:32;;;;;;;13.53;7.63;;;;;4.90;101396.00;;;;9751155;30;20229;-79
2022/12/06 20:07:34;;;;;;;12.93;7.67;;;;;4.90;101393.00;;;;9774589;30;20252;-79
2022/12/06 20:12:36;;;;;;;16.57;8.33;;;;;4.90;101395.00;;;;9775808;30;20294;-79
2022/12/06 20:17:39;;;;;;;11.70;7.87;;;;;4.90;101404.00;;;;9789528;30;20237;-78
2022/12/06 20:22:41;;;;;;;16.93;8.70;;;;;5.00;101400.00;;;;9770897;30;20281;-79
2022/12/06 20:27:53;;;;;;;18.57;8.33;;;;;5.10;101388.00;;;;9731426;30;20233;-78
2022/12/06 20:32:54;;;;;;;16.57;7.30;;;;;5.10;101402.00;;;;9771194;30;20210;-79
2022/12/06 20:37:56;;;;;;;11.30;6.80;;;;;5.20;101402.00;;;;9792003;30;20210;-79
2022/12/06 20:42:58;;;;;;;10.90;7.83;;;;;5.20;101401.00;;;;9780290;30;20219;-78
2022/12/06 20:48:00;;;;;;;12.47;7.67;;;;;5.20;101395.00;;;;9756047;30;20194;-79
2022/12/06 20:53:02;;;;;;;16.13;8.10;;;;;5.20;101378.00;;;;9731611;30;20198;-78
2022/12/06 20:58:04;;;;;;;13.40;7.63;;;;;5.10;101384.00;;;;9754671;30;20224;-78
2022/12/06 21:03:06;;;;;;;12.23;7.97;;;;;5.10;101384.00;;;;9760338;30;20210;-79
2022/12/06 21:08:08;;;;;;;12.73;8.83;;;;;5.10;101379.00;;;;9767898;30;20214;-79
2022/12/06 21:13:10;;;;;;;15.00;9.53;;;;;5.10;101377.00;;;;9754315;30;20225;-78
2022/12/06 21:18:12;;;;;;;16.27;9.07;;;;;5.10;101373.00;;;;9774919;30;20197;-78
2022/12/06 21:23:21;;;;;;;14.23;8.10;;;;;5.20;101381.00;;;;9764947;30;20218;-79
2022/12/06 21:28:22;;;;;;;15.10;7.53;;;;;5.10;101379.00;;;;9744588;30;20237;-78
2022/12/06 21:33:25;;;;;;;12.00;8.33;;;;;5.10;101380.00;;;;9744024;30;20583;-78
2022/12/06 21:38:29;;;;;;;14.57;9.00;;;;;5.10;101375.00;;;;9774411;30;20201;-79
2022/12/06 21:43:30;;;;;;;11.73;8.20;;;;;5.10;101375.00;;;;9763990;30;20225;-79
2022/12/06 21:48:32;;;;;;;16.97;8.67;;;;;5.10;101380.00;;;;9745533;30;20699;-79
2022/12/06 21:53:34;;;;;;;13.47;9.03;;;;;5.10;101383.00;;;;9754364;30;20301;-78
2022/12/06 21:58:36;;;;;;;12.40;7.90;;;;;5.00;101383.00;;;;9761246;30;20194;-78
2022/12/06 22:03:39;;;;;;;13.37;7.87;;;;;5.00;101385.00;;;;9771384;30;20264;-79
2022/12/06 22:08:42;;;;;;;13.17;8.53;;;;;5.00;101385.00;;;;9770396;30;20205;-79
2022/12/06 22:13:46;;;;;;;12.47;8.17;;;;;4.80;101381.00;;;;9769016;30;20298;-78
2022/12/06 22:18:50;;;;;;;13.27;8.13;;;;;4.70;101380.00;;;;9773989;30;20240;-79
2022/12/06 22:23:53;;;;;;;10.27;7.83;;;;;4.60;101376.00;;;;9759810;30;20303;-79
2022/12/06 22:28:57;;;;;;;12.40;8.57;;;;;4.60;101388.00;;;;9745841;30;20249;-78
2022/12/06 22:34:00;;;;;;;12.03;8.33;;;;;4.60;101390.00;;;;9779132;30;20738;-79
2022/12/06 22:39:04;;;;;;;14.50;7.87;;;;;4.70;101390.00;;;;9770866;30;20256;-79
2022/12/06 22:44:06;;;;;;;14.20;9.37;;;;;4.70;101392.00;;;;9761005;30;20690;-79
2022/12/06 22:49:09;;;;;;;10.87;8.13;;;;;4.80;101389.00;;;;9788788;30;20265;-79
2022/12/06 22:54:18;;;;;;;12.27;9.03;;;;;4.90;101382.00;;;;9760406;30;20190;-78
2022/12/06 22:59:21;;;;;;;14.53;10.03;;;;;4.90;101382.00;;;;9771728;30;20217;-78
2022/12/06 23:04:22;;;;;;;14.93;9.50;;;;;4.90;101378.00;;;;9752046;30;20224;-78
2022/12/06 23:09:24;;;;;;;14.70;9.73;;;;;4.80;101373.00;;;;9762783;30;20210;-78
2022/12/06 23:14:26;;;;;;;12.17;8.67;;;;;4.80;101381.00;;;;9758776;30;20229;-78
2022/12/06 23:19:28;;;;;;;16.43;9.13;;;;;4.80;101387.00;;;;9779321;30;20204;-78
2022/12/06 23:24:30;;;;;;;15.47;9.63;;;;;4.80;101382.00;;;;9769177;30;20217;-78
2022/12/06 23:29:32;;;;;;;13.30;9.03;;;;;4.80;101385.00;;;;9777681;30;20241;-78
2022/12/06 23:34:33;;;;;;;15.17;10.10;;;;;4.70;101383.00;;;;9778825;30;20232;-78
2022/12/06 23:39:35;;;;;;;16.67;9.53;;;;;4.70;101382.00;;;;9764855;30;20229;-78
2022/12/06 23:44:38;;;;;;;13.40;8.50;;;;;4.70;101372.00;;;;9775303;30;20227;-79
2022/12/06 23:49:40;;;;;;;14.20;9.37;;;;;4.50;101362.00;;;;9787912;30;20206;-78
2022/12/06 23:54:42;;;;;;;16.53;9.87;;;;;4.30;101369.00;;;;9777867;30;20285;-78
2022/12/06 23:59:44;;;;;;;14.60;9.33;;;;;4.20;101358.00;;;;9761641;30;20206;-78
